Time;durP1;ratioP1;P1;durP2;ratioP2;P2;SDS_P1;SDS_P2;PMS_P1;PMS_P2;Temp;Humidity;BMP_temperature;BMP_pressure;BME280_temperature;BME280_humidity;BME280_pressure;Samples;Min_cycle;Max_cycle;Signal;HPM_P1;HPM_P2
2021/08/19 00:01:03;;;;;;;2.95;1.20;;;18.00;99.90;;;;;;5052704;28;20025;-83
2021/08/19 00:03:29;;;;;;;1.63;1.10;;;17.90;99.90;;;;;;5052645;28;20021;-83
2021/08/19 00:05:55;;;;;;;2.13;1.15;;;18.10;99.90;;;;;;5052579;28;20392;-83
2021/08/19 00:08:20;;;;;;;2.35;1.13;;;18.10;99.90;;;;;;5053780;28;20419;-83
2021/08/19 00:10:47;;;;;;;3.45;1.00;;;18.10;99.90;;;;;;5052582;28;20032;-83
2021/08/19 00:13:12;;;;;;;1.98;1.05;;;18.10;99.90;;;;;;5052731;28;20025;-83
2021/08/19 00:15:38;;;;;;;1.50;0.85;;;18.10;99.90;;;;;;5052712;28;20505;-83
2021/08/19 00:18:04;;;;;;;2.63;1.00;;;18.00;99.90;;;;;;5053780;28;20564;-83
2021/08/19 00:20:31;;;;;;;2.17;1.00;;;18.00;99.90;;;;;;5052359;28;20151;-83
2021/08/19 00:22:59;;;;;;;1.45;1.00;;;18.00;99.90;;;;;;5052354;28;20463;-83
2021/08/19 00:25:25;;;;;;;1.65;0.95;;;18.10;99.90;;;;;;5053582;28;20382;-83
2021/08/19 00:27:51;;;;;;;2.20;1.10;;;18.10;99.90;;;;;;5052364;28;20029;-83
2021/08/19 00:30:17;;;;;;;2.17;0.75;;;18.10;99.90;;;;;;5052204;28;20120;-83
2021/08/19 00:32:42;;;;;;;1.30;1.00;;;18.10;99.90;;;;;;5052216;28;20057;-83
2021/08/19 00:35:09;;;;;;;2.13;0.88;;;18.00;99.90;;;;;;5052197;28;20500;-83
2021/08/19 00:37:34;;;;;;;1.52;1.00;;;18.00;99.90;;;;;;5052069;28;20409;-83
2021/08/19 00:40:03;;;;;;;1.33;0.70;;;18.00;99.90;;;;;;5051633;28;20032;-83
2021/08/19 00:42:31;;;;;;;2.10;0.90;;;18.00;99.90;;;;;;5053237;28;20509;-83
2021/08/19 00:44:57;;;;;;;3.38;1.13;;;18.00;99.90;;;;;;5052063;28;20021;-83
2021/08/19 00:47:26;;;;;;;1.10;0.75;;;18.00;99.90;;;;;;5051946;28;20484;-83
2021/08/19 00:49:52;;;;;;;2.70;0.85;;;18.10;99.90;;;;;;5051977;28;20473;-83
2021/08/19 00:52:18;;;;;;;1.58;1.00;;;17.90;99.90;;;;;;5051767;28;20052;-83
2021/08/19 00:54:44;;;;;;;3.38;1.02;;;18.00;99.90;;;;;;5051954;28;20021;-83
2021/08/19 00:57:10;;;;;;;1.30;0.80;;;18.10;99.90;;;;;;5051900;28;20021;-83
2021/08/19 00:59:37;;;;;;;5.00;1.05;;;18.00;99.90;;;;;;5051913;28;20481;-83
2021/08/19 01:02:03;;;;;;;2.72;1.10;;;17.90;99.90;;;;;;5051899;28;20071;-83
2021/08/19 01:04:31;;;;;;;0.90;0.80;;;18.00;99.90;;;;;;5051836;28;20440;-83
2021/08/19 01:06:58;;;;;;;2.83;1.00;;;18.10;99.90;;;;;;5053044;28;20078;-83
2021/08/19 01:09:24;;;;;;;1.00;0.68;;;18.10;99.90;;;;;;5053239;28;20021;-83
2021/08/19 01:11:49;;;;;;;1.92;0.85;;;18.10;99.90;;;;;;5051867;28;20027;-83
2021/08/19 01:14:15;;;;;;;2.22;0.90;;;18.10;99.90;;;;;;5051764;28;20388;-83
2021/08/19 01:16:48;;;;;;;1.17;0.90;;;18.10;99.90;;;;;;5051721;28;20021;-83
2021/08/19 01:19:19;;;;;;;0.93;0.60;;;18.10;99.90;;;;;;5052989;28;20021;-83
2021/08/19 01:21:45;;;;;;;1.38;0.80;;;18.10;99.90;;;;;;5052966;28;20473;-83
2021/08/19 01:24:12;;;;;;;1.05;0.70;;;18.10;99.90;;;;;;5051693;28;20136;-83
2021/08/19 01:26:40;;;;;;;1.52;0.80;;;18.10;99.90;;;;;;5052939;28;20385;-83
2021/08/19 01:29:06;;;;;;;1.90;0.90;;;18.00;99.90;;;;;;5051570;28;20025;-83
2021/08/19 01:31:33;;;;;;;1.98;1.10;;;17.90;99.90;;;;;;5051592;28;20021;-83
2021/08/19 01:33:59;;;;;;;1.92;0.70;;;17.90;99.90;;;;;;5051627;28;20025;-83
2021/08/19 01:36:25;;;;;;;0.93;0.63;;;17.90;99.90;;;;;;5051472;28;20032;-83
2021/08/19 01:38:51;;;;;;;2.92;0.73;;;17.90;99.90;;;;;;5051560;28;20029;-83
2021/08/19 01:41:18;;;;;;;0.85;0.80;;;17.90;99.90;;;;;;5052784;28;20094;-83
2021/08/19 01:43:46;;;;;;;3.60;0.88;;;17.90;99.90;;;;;;5051718;28;20384;-83
2021/08/19 01:46:13;;;;;;;2.90;0.90;;;18.00;99.90;;;;;;5051507;28;20451;-83
2021/08/19 01:48:43;;;;;;;1.67;0.80;;;18.10;99.90;;;;;;5052631;28;20025;-83
2021/08/19 01:51:20;;;;;;;1.38;0.68;;;18.10;99.90;;;;;;5059526;28;20032;-83
2021/08/19 01:53:48;;;;;;;1.38;0.60;;;18.10;99.90;;;;;;5077636;28;20028;-83
2021/08/19 01:56:15;;;;;;;1.23;0.63;;;18.10;99.90;;;;;;5096631;28;20020;-83
2021/08/19 01:58:40;;;;;;;1.20;0.80;;;18.00;99.90;;;;;;5078432;28;20122;-83
2021/08/19 02:01:06;;;;;;;1.48;0.80;;;17.90;99.90;;;;;;5096581;28;20051;-83
2021/08/19 02:03:32;;;;;;;1.20;0.77;;;17.90;99.90;;;;;;5078581;28;20383;-82
2021/08/19 02:05:58;;;;;;;1.02;0.60;;;18.00;99.90;;;;;;5096411;28;20024;-83
2021/08/19 02:08:23;;;;;;;2.60;0.77;;;17.90;99.90;;;;;;5096340;28;20059;-82
2021/08/19 02:10:49;;;;;;;1.50;0.80;;;17.90;99.90;;;;;;5078152;28;20024;-83
2021/08/19 02:13:15;;;;;;;1.15;0.73;;;17.90;99.90;;;;;;5078095;28;20027;-83
2021/08/19 02:15:42;;;;;;;0.70;0.60;;;17.90;99.90;;;;;;5096266;28;20070;-83
2021/08/19 02:18:07;;;;;;;1.30;0.80;;;17.90;99.90;;;;;;5078099;28;20031;-82
2021/08/19 02:20:34;;;;;;;0.90;0.70;;;17.90;99.90;;;;;;5078029;28;20032;-83
2021/08/19 02:23:01;;;;;;;1.00;0.70;;;17.90;99.90;;;;;;5078235;28;20476;-83
2021/08/19 02:25:28;;;;;;;2.33;0.63;;;18.00;99.90;;;;;;5078199;28;20024;-83
2021/08/19 02:27:54;;;;;;;3.00;0.90;;;17.90;99.90;;;;;;5078284;28;20054;-82
2021/08/19 02:30:20;;;;;;;3.17;0.90;;;17.90;99.90;;;;;;5096027;28;20020;-83
2021/08/19 02:32:52;;;;;;;1.52;0.77;;;17.90;99.90;;;;;;5077821;28;20024;-83
2021/08/19 02:35:18;;;;;;;4.00;0.70;;;17.90;99.90;;;;;;5077804;28;20016;-83
2021/08/19 02:37:44;;;;;;;4.88;0.88;;;18.00;99.90;;;;;;5077553;28;20047;-83
2021/08/19 02:40:10;;;;;;;2.92;0.68;;;17.90;99.90;;;;;;5077591;28;20032;-83
2021/08/19 02:42:36;;;;;;;1.98;0.73;;;17.90;99.90;;;;;;5077589;28;20024;-83
2021/08/19 02:45:02;;;;;;;2.53;0.90;;;17.80;99.90;;;;;;5077537;28;20024;-83
2021/08/19 02:47:27;;;;;;;1.35;0.90;;;17.90;99.90;;;;;;5077403;28;20032;-83
2021/08/19 02:49:53;;;;;;;1.20;0.98;;;17.90;99.90;;;;;;5095625;28;20487;-83
2021/08/19 02:52:19;;;;;;;1.10;0.73;;;17.90;99.90;;;;;;5095390;28;20052;-83
2021/08/19 02:54:44;;;;;;;0.98;0.70;;;17.90;99.90;;;;;;5077349;28;20030;-83
2021/08/19 02:57:10;;;;;;;1.00;0.82;;;18.00;99.90;;;;;;5077373;28;20028;-83
2021/08/19 02:59:36;;;;;;;2.20;0.82;;;18.00;99.90;;;;;;5077286;28;20107;-83
2021/08/19 03:02:02;;;;;;;0.80;0.70;;;17.90;99.90;;;;;;5095346;28;20027;-83
2021/08/19 03:04:28;;;;;;;1.55;0.70;;;17.90;99.90;;;;;;5076811;28;20028;-83
2021/08/19 03:06:53;;;;;;;0.52;0.50;;;17.80;99.90;;;;;;5077109;28;20020;-83
2021/08/19 03:09:19;;;;;;;1.23;0.55;;;17.80;99.90;;;;;;5077065;28;20114;-82
2021/08/19 03:11:45;;;;;;;1.30;0.70;;;17.90;99.90;;;;;;5077053;28;20024;-83
2021/08/19 03:14:10;;;;;;;2.35;0.70;;;17.80;99.90;;;;;;5077040;28;20384;-83
2021/08/19 03:16:36;;;;;;;1.92;1.00;;;17.80;99.90;;;;;;5095098;28;20016;-83
2021/08/19 03:19:03;;;;;;;3.53;0.80;;;17.90;99.90;;;;;;5076848;28;20124;-83
2021/08/19 03:21:29;;;;;;;2.47;0.73;;;17.90;99.90;;;;;;5094986;28;20153;-83
2021/08/19 03:23:55;;;;;;;1.02;0.73;;;17.80;99.90;;;;;;5076852;28;20407;-83
2021/08/19 03:26:21;;;;;;;2.33;0.70;;;17.90;99.90;;;;;;5076741;28;20092;-83
2021/08/19 03:28:46;;;;;;;1.10;0.90;;;17.80;99.90;;;;;;5076595;28;20027;-83
2021/08/19 03:31:12;;;;;;;3.50;0.70;;;17.80;99.90;;;;;;5076680;28;20025;-83
2021/08/19 03:33:38;;;;;;;0.95;0.60;;;17.80;99.90;;;;;;5076586;28;20020;-82
2021/08/19 03:36:05;;;;;;;3.08;0.60;;;17.90;99.90;;;;;;5076426;28;20370;-83
2021/08/19 03:38:31;;;;;;;4.80;0.70;;;17.90;99.90;;;;;;5076488;28;20057;-83
2021/08/19 03:40:56;;;;;;;2.85;0.60;;;17.80;99.90;;;;;;5094614;28;20023;-83
2021/08/19 03:43:22;;;;;;;2.53;0.60;;;17.80;99.90;;;;;;5094577;28;20107;-83
2021/08/19 03:45:48;;;;;;;1.83;0.70;;;17.90;99.90;;;;;;5094545;28;20027;-83
2021/08/19 03:48:16;;;;;;;1.15;0.73;;;17.80;99.90;;;;;;5076269;28;20114;-82
2021/08/19 03:50:43;;;;;;;0.82;0.52;;;17.80;99.90;;;;;;5094439;28;20016;-83
2021/08/19 03:53:09;;;;;;;1.80;0.73;;;17.80;99.90;;;;;;5094410;28;20032;-83
2021/08/19 03:55:34;;;;;;;1.40;0.70;;;17.80;99.90;;;;;;5094355;28;20020;-83
2021/08/19 03:58:00;;;;;;;1.88;0.70;;;17.80;99.90;;;;;;5076155;28;20551;-83
2021/08/19 04:00:26;;;;;;;1.35;0.70;;;17.70;99.90;;;;;;5076010;28;20028;-82
2021/08/19 04:02:52;;;;;;;1.42;0.80;;;17.70;99.90;;;;;;5076017;28;20024;-83
2021/08/19 04:05:17;;;;;;;1.15;0.63;;;17.80;99.90;;;;;;5076027;28;20024;-82
2021/08/19 04:07:43;;;;;;;1.10;0.63;;;17.90;99.90;;;;;;5075903;28;20523;-83
2021/08/19 04:10:09;;;;;;;1.42;0.75;;;17.80;99.90;;;;;;5075937;28;20020;-83
2021/08/19 04:12:36;;;;;;;1.80;0.57;;;17.80;99.90;;;;;;5075862;28;20384;-83
2021/08/19 04:15:03;;;;;;;2.35;0.60;;;17.70;99.90;;;;;;5075089;28;20020;-83
2021/08/19 04:17:29;;;;;;;0.88;0.68;;;17.80;99.90;;;;;;5075777;28;20081;-83
2021/08/19 04:19:55;;;;;;;2.97;0.70;;;17.80;99.90;;;;;;5075775;28;20058;-81
2021/08/19 04:22:21;;;;;;;0.95;0.50;;;17.80;99.90;;;;;;5093815;28;20028;-82
2021/08/19 04:24:47;;;;;;;1.58;0.70;;;17.80;99.90;;;;;;5075683;28;20032;-82
2021/08/19 04:27:12;;;;;;;1.40;0.70;;;17.80;99.90;;;;;;5075534;28;20024;-83
2021/08/19 04:29:38;;;;;;;2.50;0.82;;;17.80;99.90;;;;;;5075600;28;20093;-83
2021/08/19 04:32:04;;;;;;;0.88;0.60;;;17.80;99.90;;;;;;5075560;28;20031;-83
2021/08/19 04:34:30;;;;;;;1.05;0.60;;;17.80;99.90;;;;;;5094013;28;20487;-83
2021/08/19 04:36:56;;;;;;;2.30;0.70;;;17.80;99.90;;;;;;5075627;28;20059;-82
2021/08/19 04:39:23;;;;;;;1.00;0.60;;;17.80;99.90;;;;;;5093885;28;20097;-83
2021/08/19 04:41:50;;;;;;;1.02;0.70;;;17.70;99.90;;;;;;5075745;28;20450;-82
2021/08/19 04:44:17;;;;;;;2.85;0.60;;;17.70;99.90;;;;;;5075507;28;20047;-83
2021/08/19 04:46:42;;;;;;;1.00;0.57;;;17.60;99.90;;;;;;5093587;28;20537;-82
2021/08/19 04:49:08;;;;;;;1.92;0.80;;;17.60;99.90;;;;;;5075342;28;20020;-83
2021/08/19 04:51:35;;;;;;;1.15;0.60;;;17.70;99.90;;;;;;5075140;28;20072;-83
2021/08/19 04:54:02;;;;;;;3.67;0.75;;;17.70;99.90;;;;;;5075320;28;20541;-82
2021/08/19 04:56:30;;;;;;;1.40;0.68;;;17.70;99.90;;;;;;5075389;28;20020;-82
2021/08/19 04:58:57;;;;;;;1.48;0.63;;;17.70;99.90;;;;;;5075317;28;20024;-82
2021/08/19 05:01:23;;;;;;;1.35;0.75;;;17.60;99.90;;;;;;5093352;28;20507;-83
2021/08/19 05:03:48;;;;;;;2.65;0.65;;;17.70;99.90;;;;;;5075250;28;20056;-83
2021/08/19 05:06:14;;;;;;;1.35;0.80;;;17.70;99.90;;;;;;5075254;28;20055;-82
2021/08/19 05:08:40;;;;;;;2.35;0.80;;;17.60;99.90;;;;;;5075121;28;20073;-83
2021/08/19 05:11:05;;;;;;;1.00;0.77;;;17.60;99.90;;;;;;5075186;28;20020;-83
2021/08/19 05:13:31;;;;;;;1.20;0.60;;;17.70;99.90;;;;;;5075143;28;20020;-83
2021/08/19 05:15:57;;;;;;;1.48;0.55;;;17.60;99.90;;;;;;5075123;28;20027;-82
2021/08/19 05:18:25;;;;;;;2.58;0.70;;;17.50;99.90;;;;;;5075561;28;20123;-82
2021/08/19 05:20:51;;;;;;;3.50;0.77;;;17.60;99.90;;;;;;5075128;28;20499;-82
2021/08/19 05:23:17;;;;;;;1.00;0.70;;;17.40;99.90;;;;;;5093172;28;20112;-82
2021/08/19 05:25:42;;;;;;;1.63;0.60;;;17.40;99.90;;;;;;5075059;28;20184;-82
2021/08/19 05:28:08;;;;;;;2.45;1.00;;;17.30;99.90;;;;;;5078661;28;20020;-82
2021/08/19 05:30:34;;;;;;;2.00;0.80;;;17.30;99.90;;;;;;5078996;28;20031;-83
2021/08/19 05:32:59;;;;;;;1.88;0.60;;;17.40;99.90;;;;;;5078930;28;20043;-82
2021/08/19 05:35:25;;;;;;;1.60;0.60;;;17.50;99.90;;;;;;5078923;28;20024;-83
2021/08/19 05:37:51;;;;;;;1.02;0.80;;;17.50;99.90;;;;;;5097245;28;20035;-83
2021/08/19 05:40:16;;;;;;;1.67;0.85;;;17.30;99.90;;;;;;5096947;28;20360;-84
2021/08/19 05:42:42;;;;;;;6.70;1.35;;;17.40;99.90;;;;;;5078701;28;20480;-83
2021/08/19 05:45:08;;;;;;;2.38;0.70;;;17.60;99.90;;;;;;5078674;28;20035;-82
2021/08/19 05:47:34;;;;;;;2.72;0.65;;;17.50;99.90;;;;;;5096686;28;20028;-83
2021/08/19 05:50:00;;;;;;;2.33;0.98;;;17.70;99.90;;;;;;5078475;28;20065;-83
2021/08/19 05:52:26;;;;;;;1.85;0.95;;;17.70;99.90;;;;;;5078365;28;20067;-83
2021/08/19 05:54:51;;;;;;;2.05;0.80;;;17.80;99.90;;;;;;5078485;28;20070;-83
2021/08/19 05:57:17;;;;;;;2.90;1.20;;;17.80;99.90;;;;;;5078448;28;20029;-83
2021/08/19 05:59:43;;;;;;;2.80;0.85;;;17.80;99.90;;;;;;5078444;28;20069;-83
2021/08/19 06:02:09;;;;;;;1.40;0.60;;;17.80;99.90;;;;;;5078388;28;20111;-83
2021/08/19 06:04:36;;;;;;;1.42;0.70;;;17.90;99.90;;;;;;5078342;28;20459;-83
2021/08/19 06:07:03;;;;;;;1.38;0.80;;;18.00;99.90;;;;;;5096388;28;20024;-83
2021/08/19 06:09:28;;;;;;;1.42;0.80;;;18.10;99.90;;;;;;5078180;28;20028;-83
2021/08/19 06:11:54;;;;;;;0.98;0.55;;;18.00;99.90;;;;;;5078267;28;20384;-83
2021/08/19 06:14:19;;;;;;;1.15;0.70;;;18.00;99.90;;;;;;5078195;28;20020;-83
2021/08/19 06:16:45;;;;;;;1.33;0.70;;;18.10;99.90;;;;;;5096865;28;20020;-83
2021/08/19 06:19:11;;;;;;;1.58;0.88;;;18.20;99.90;;;;;;5096229;28;20487;-85
2021/08/19 06:21:37;;;;;;;1.27;0.80;;;18.20;99.90;;;;;;5078010;28;20536;-83
2021/08/19 06:24:03;;;;;;;5.10;1.02;;;18.10;99.90;;;;;;5078026;28;20028;-83
2021/08/19 06:26:28;;;;;;;1.40;0.95;;;18.10;99.90;;;;;;5077935;28;20024;-83
2021/08/19 06:28:55;;;;;;;6.38;1.10;;;18.10;99.90;;;;;;5077813;28;20097;-83
2021/08/19 06:31:20;;;;;;;15.55;2.42;;;18.30;99.90;;;;;;5077800;28;20071;-83
2021/08/19 06:33:46;;;;;;;2.35;0.70;;;18.40;99.90;;;;;;5077832;28;20043;-83
2021/08/19 06:36:12;;;;;;;4.50;0.98;;;18.30;99.90;;;;;;5095816;28;20511;-83
2021/08/19 06:38:38;;;;;;;4.63;0.82;;;18.50;99.90;;;;;;5095067;28;20031;-83
2021/08/19 06:41:04;;;;;;;3.75;0.80;;;18.60;99.90;;;;;;5077925;28;20027;-83
2021/08/19 06:43:29;;;;;;;1.30;0.68;;;18.70;99.90;;;;;;5095741;28;20074;-83
2021/08/19 06:45:55;;;;;;;1.92;0.75;;;18.60;99.90;;;;;;5077607;28;20080;-84
2021/08/19 06:48:21;;;;;;;1.30;0.80;;;18.60;99.90;;;;;;5077444;28;20392;-82
2021/08/19 06:50:46;;;;;;;1.45;0.68;;;18.50;99.90;;;;;;5095691;28;20060;-83
2021/08/19 06:53:12;;;;;;;1.33;0.80;;;18.60;99.90;;;;;;5077695;28;20024;-83
2021/08/19 06:55:38;;;;;;;4.93;0.90;;;18.60;99.90;;;;;;5077285;28;20020;-83
2021/08/19 06:58:04;;;;;;;3.72;0.80;;;18.70;99.90;;;;;;5077563;28;20027;-83
2021/08/19 07:00:29;;;;;;;4.03;1.17;;;18.70;99.90;;;;;;5095307;28;20028;-83
2021/08/19 07:02:55;;;;;;;1.20;0.80;;;18.90;99.90;;;;;;5077255;28;20035;-82
2021/08/19 07:05:21;;;;;;;1.65;0.73;;;18.90;99.90;;;;;;5077174;28;20070;-83
2021/08/19 07:07:46;;;;;;;1.20;0.80;;;18.90;99.90;;;;;;5095239;28;20023;-83
2021/08/19 07:10:12;;;;;;;2.80;0.80;;;19.00;99.90;;;;;;5077205;28;20065;-83
2021/08/19 07:12:38;;;;;;;2.30;0.88;;;19.10;99.90;;;;;;5077063;28;20048;-83
2021/08/19 07:15:06;;;;;;;1.83;0.90;;;19.20;99.90;;;;;;5095149;28;20020;-84
2021/08/19 07:17:32;;;;;;;2.47;0.93;;;19.30;99.90;;;;;;5077291;28;20046;-83
2021/08/19 07:19:58;;;;;;;3.38;0.80;;;19.40;99.90;;;;;;5077210;28;20024;-83
2021/08/19 07:22:23;;;;;;;1.05;0.70;;;19.50;99.90;;;;;;5076750;28;20032;-83
2021/08/19 07:24:49;;;;;;;1.08;0.77;;;19.50;99.90;;;;;;5076724;28;20020;-83
2021/08/19 07:27:15;;;;;;;1.58;0.80;;;19.60;99.90;;;;;;5076580;28;20399;-83
2021/08/19 07:29:41;;;;;;;1.45;0.95;;;19.40;99.90;;;;;;5076581;28;20084;-83
2021/08/19 07:32:07;;;;;;;1.52;0.82;;;19.60;99.90;;;;;;5094704;28;20020;-83
2021/08/19 07:34:33;;;;;;;3.85;0.90;;;19.80;99.90;;;;;;5076357;28;20065;-83
2021/08/19 07:37:00;;;;;;;1.15;1.00;;;19.70;99.90;;;;;;5094832;28;20035;-83
2021/08/19 07:39:26;;;;;;;1.48;0.88;;;19.80;99.90;;;;;;5076289;28;20047;-84
2021/08/19 07:41:52;;;;;;;2.35;1.00;;;19.80;99.90;;;;;;5076308;28;20024;-83
2021/08/19 07:44:17;;;;;;;1.45;0.70;;;19.70;99.90;;;;;;5076314;28;20661;-84
2021/08/19 07:46:43;;;;;;;1.15;0.70;;;19.80;99.90;;;;;;5076230;28;20111;-84
2021/08/19 07:49:09;;;;;;;0.90;0.60;;;19.80;99.90;;;;;;5076209;28;20115;-84
2021/08/19 07:51:34;;;;;;;1.05;0.70;;;19.90;99.90;;;;;;5075898;28;20036;-84
2021/08/19 07:54:01;;;;;;;1.50;0.80;;;19.90;99.90;;;;;;5076185;28;20268;-84
2021/08/19 07:56:27;;;;;;;1.30;0.80;;;19.90;99.90;;;;;;5076072;28;20030;-84
2021/08/19 07:58:52;;;;;;;1.08;0.70;;;19.80;99.90;;;;;;5076635;28;20028;-84
2021/08/19 08:01:18;;;;;;;2.50;0.95;;;19.80;99.90;;;;;;5075939;28;20028;-84
2021/08/19 08:03:44;;;;;;;0.90;0.65;;;20.00;99.90;;;;;;5075897;28;20080;-84
2021/08/19 08:12:22;;;;;;;3.03;0.82;;;20.40;99.90;;;;;;5094347;28;20019;-84
2021/08/19 08:14:50;;;;;;;0.98;0.68;;;20.60;99.90;;;;;;5075817;28;20016;-84
2021/08/19 08:17:18;;;;;;;2.70;0.70;;;20.70;99.90;;;;;;5075774;28;20028;-84
2021/08/19 08:19:43;;;;;;;2.30;0.63;;;20.70;99.90;;;;;;5075714;28;20028;-84
2021/08/19 08:22:09;;;;;;;2.15;0.85;;;20.80;99.90;;;;;;5093761;28;20430;-83
2021/08/19 08:24:35;;;;;;;1.23;0.70;;;20.80;99.90;;;;;;5075732;28;20107;-84
2021/08/19 08:27:00;;;;;;;1.52;0.70;;;20.80;99.90;;;;;;5094079;28;20419;-85
2021/08/19 08:29:27;;;;;;;3.33;0.88;;;20.80;99.90;;;;;;5075502;28;20024;-84
2021/08/19 08:31:53;;;;;;;2.17;0.90;;;20.90;99.90;;;;;;5075582;28;20064;-84
2021/08/19 08:34:18;;;;;;;3.03;0.88;;;20.80;99.90;;;;;;5075552;28;20476;-84
2021/08/19 08:36:44;;;;;;;1.80;0.70;;;20.90;99.90;;;;;;5075492;28;20076;-84
2021/08/19 08:39:10;;;;;;;1.95;0.80;;;20.70;99.90;;;;;;5076352;28;20384;-83
2021/08/19 08:41:40;;;;;;;4.70;0.70;;;20.40;99.90;;;;;;5075492;28;20028;-83
2021/08/19 08:44:06;;;;;;;1.50;0.88;;;20.40;99.90;;;;;;5075469;28;20031;-84
2021/08/19 08:46:35;;;;;;;1.13;0.68;;;20.40;99.90;;;;;;5075360;28;20028;-84
2021/08/19 08:49:01;;;;;;;1.67;0.70;;;20.40;99.90;;;;;;5075275;28;20032;-84
2021/08/19 08:51:27;;;;;;;2.47;0.57;;;20.50;99.90;;;;;;5075158;28;20138;-84
2021/08/19 08:53:53;;;;;;;1.80;0.68;;;20.40;99.90;;;;;;5093464;28;20095;-84
2021/08/19 08:56:19;;;;;;;1.77;0.70;;;20.50;99.90;;;;;;5075841;28;20107;-84
2021/08/19 08:58:45;;;;;;;1.08;0.80;;;20.50;99.90;;;;;;5093364;28;20103;-84
2021/08/19 09:01:17;;;;;;;1.10;0.68;;;20.40;99.90;;;;;;5075071;28;20118;-83
2021/08/19 09:03:43;;;;;;;0.55;0.52;;;20.30;99.90;;;;;;5075574;28;20516;-82
2021/08/19 09:06:09;;;;;;;2.42;0.60;;;20.40;99.90;;;;;;5075441;28;20028;-82
2021/08/19 09:08:49;;;;;;;0.65;0.55;;;20.30;99.90;;;;;;5075167;28;20077;-82
2021/08/19 09:11:14;;;;;;;3.08;1.00;;;20.40;99.90;;;;;;5076093;28;20020;-83
2021/08/19 09:13:40;;;;;;;1.00;0.80;;;20.50;99.90;;;;;;5075126;28;20387;-82
2021/08/19 09:16:18;;;;;;;1.73;0.65;;;20.50;99.90;;;;;;5093175;28;20024;-82
2021/08/19 09:18:44;;;;;;;2.05;0.63;;;20.50;99.90;;;;;;5074961;28;20028;-82
2021/08/19 09:21:23;;;;;;;1.08;0.73;;;20.70;99.90;;;;;;5093117;28;20028;-83
2021/08/19 09:24:20;;;;;;;1.38;0.63;;;20.80;99.90;;;;;;5074902;28;20043;-82
2021/08/19 09:26:47;;;;;;;2.75;0.90;;;21.00;99.90;;;;;;5075044;28;20019;-83
2021/08/19 09:29:30;;;;;;;2.15;0.70;;;21.10;99.90;;;;;;5074933;28;20152;-83
2021/08/19 09:32:11;;;;;;;1.92;0.90;;;20.90;99.90;;;;;;5074969;28;20596;-83
2021/08/19 09:34:37;;;;;;;1.08;0.52;;;20.90;99.90;;;;;;5074925;28;20020;-83
2021/08/19 09:37:07;;;;;;;1.42;0.65;;;20.90;99.90;;;;;;5092904;28;20047;-82
2021/08/19 09:39:38;;;;;;;2.83;0.70;;;20.70;99.90;;;;;;5074887;28;20028;-82
2021/08/19 09:42:06;;;;;;;3.05;0.80;;;20.60;99.90;;;;;;5093014;28;20361;-82
2021/08/19 09:44:40;;;;;;;2.20;0.77;;;20.50;99.90;;;;;;5093272;28;20032;-82
2021/08/19 09:47:26;;;;;;;0.70;0.60;;;20.60;99.90;;;;;;5074853;28;20028;-82
2021/08/19 09:50:08;;;;;;;5.07;0.82;;;20.70;99.90;;;;;;5074814;28;20029;-82
2021/08/19 09:52:34;;;;;;;2.05;0.60;;;20.80;99.90;;;;;;5074602;28;20040;-82
2021/08/19 09:55:24;;;;;;;0.80;0.60;;;20.80;99.90;;;;;;5074792;28;20073;-82
2021/08/19 09:57:51;;;;;;;10.35;1.02;;;20.80;99.90;;;;;;5074643;28;20024;-82
2021/08/19 10:00:23;;;;;;;52.47;4.85;;;20.70;99.90;;;;;;5074643;28;20034;-83
2021/08/19 10:02:49;;;;;;;1.77;0.85;;;20.90;99.90;;;;;;5074790;28;20069;-82
2021/08/19 10:05:15;;;;;;;1.55;0.70;;;21.10;99.90;;;;;;5092793;28;20024;-82
2021/08/19 10:07:41;;;;;;;31.15;3.45;;;21.00;99.90;;;;;;5074573;28;20123;-82
2021/08/19 10:10:08;;;;;;;33.63;2.95;;;21.30;99.90;;;;;;5074586;28;20507;-82
2021/08/19 10:12:35;;;;;;;6.97;1.27;;;21.50;99.90;;;;;;5074506;28;20051;-82
2021/08/19 10:15:01;;;;;;;1.80;0.82;;;21.20;99.90;;;;;;5095840;28;20022;-82
2021/08/19 10:17:27;;;;;;;15.15;2.15;;;21.20;99.90;;;;;;5096296;28;20020;-83
2021/08/19 10:19:53;;;;;;;8.38;1.05;;;21.70;99.90;;;;;;5078103;28;20472;-83
2021/08/19 10:22:22;;;;;;;0.88;0.68;;;21.80;99.90;;;;;;5078011;28;20417;-83
2021/08/19 10:24:54;;;;;;;1.48;0.60;;;22.00;99.90;;;;;;5077999;28;20020;-82
2021/08/19 10:27:22;;;;;;;2.28;0.60;;;21.70;99.90;;;;;;5096105;28;20024;-82
2021/08/19 10:29:59;;;;;;;1.20;0.80;;;21.50;99.90;;;;;;5077925;28;20045;-82
2021/08/19 10:32:33;;;;;;;0.90;0.60;;;21.40;99.90;;;;;;5077875;28;20099;-82
2021/08/19 10:35:00;;;;;;;1.52;0.80;;;21.30;99.90;;;;;;5096268;28;20380;-82
2021/08/19 10:37:44;;;;;;;1.50;0.70;;;21.70;99.90;;;;;;5077677;28;20097;-82
2021/08/19 10:40:22;;;;;;;3.55;0.70;;;21.90;99.90;;;;;;5077789;28;20381;-82
2021/08/19 10:42:53;;;;;;;1.40;0.70;;;21.90;99.90;;;;;;5077939;28;20028;-82
2021/08/19 10:45:28;;;;;;;3.10;0.60;;;22.00;99.90;;;;;;5077676;28;20035;-82
2021/08/19 10:48:06;;;;;;;4.28;0.70;;;21.80;99.90;;;;;;5077473;28;20020;-82
2021/08/19 10:50:40;;;;;;;2.13;0.70;;;21.50;99.90;;;;;;5095585;28;20026;-82
2021/08/19 10:53:17;;;;;;;2.08;0.80;;;21.60;99.90;;;;;;5054334;28;20087;-83
2021/08/19 10:55:52;;;;;;;1.58;0.60;;;21.80;99.90;;;;;;5054032;28;20017;-82
2021/08/19 10:58:32;;;;;;;2.78;0.70;;;21.80;99.90;;;;;;5054075;28;20032;-82
2021/08/19 11:01:21;;;;;;;1.38;0.70;;;22.00;99.90;;;;;;5055517;28;20358;-83
2021/08/19 11:03:49;;;;;;;1.05;0.60;;;22.10;99.90;;;;;;5055224;28;20025;-82
2021/08/19 11:06:20;;;;;;;1.60;0.70;;;22.50;99.90;;;;;;5055131;28;20025;-82
2021/08/19 11:08:48;;;;;;;1.77;0.75;;;22.40;99.90;;;;;;5053724;28;20370;-82
2021/08/19 11:11:26;;;;;;;1.67;0.70;;;22.40;99.90;;;;;;5053771;28;20024;-83
2021/08/19 11:14:00;;;;;;;1.10;0.80;;;23.10;99.90;;;;;;5054147;28;20033;-82
2021/08/19 11:16:26;;;;;;;14.18;1.23;;;23.30;99.90;;;;;;5053727;28;20025;-83
2021/08/19 11:18:52;;;;;;;18.55;1.30;;;23.30;99.90;;;;;;5053560;28;20025;-82
2021/08/19 11:21:18;;;;;;;3.67;0.80;;;23.40;99.90;;;;;;5053619;28;20036;-82
2021/08/19 11:23:46;;;;;;;1.00;0.60;;;23.80;99.90;;;;;;5053433;28;20025;-82
2021/08/19 11:26:17;;;;;;;0.70;0.40;;;24.00;99.90;;;;;;5053334;28;20501;-82
2021/08/19 11:28:49;;;;;;;1.90;0.70;;;23.90;99.90;;;;;;5053414;28;20032;-83
2021/08/19 11:31:20;;;;;;;0.93;0.60;;;24.20;99.90;;;;;;5054728;28;20096;-83
2021/08/19 11:33:57;;;;;;;1.25;0.63;;;24.30;99.90;;;;;;5053463;28;20032;-82
2021/08/19 11:36:24;;;;;;;1.77;0.68;;;23.80;99.90;;;;;;5053261;28;20056;-82
2021/08/19 11:39:04;;;;;;;2.60;0.80;;;23.80;99.90;;;;;;5053253;28;20025;-82
2021/08/19 11:41:30;;;;;;;1.10;0.50;;;23.50;99.90;;;;;;5053215;28;20048;-82
2021/08/19 11:44:01;;;;;;;3.13;0.75;;;23.30;99.90;;;;;;5053136;28;20110;-82
2021/08/19 11:46:27;;;;;;;1.73;1.00;;;23.00;99.90;;;;;;5052967;28;20418;-82
2021/08/19 11:49:01;;;;;;;1.55;1.00;;;22.80;99.90;;;;;;5054180;28;20053;-82
2021/08/19 11:51:30;;;;;;;1.20;0.70;;;22.80;99.90;;;;;;5052832;28;20554;-83
2021/08/19 11:54:02;;;;;;;1.58;0.90;;;22.80;99.90;;;;;;5054100;28;20401;-83
2021/08/19 11:56:33;;;;;;;1.25;0.80;;;22.80;99.90;;;;;;5054214;28;20021;-82
2021/08/19 11:59:09;;;;;;;1.70;0.98;;;22.90;99.90;;;;;;5052885;28;20021;-82
2021/08/19 12:01:36;;;;;;;1.48;0.68;;;23.00;99.90;;;;;;5052688;28;20116;-82
2021/08/19 12:04:03;;;;;;;3.40;0.90;;;22.80;99.90;;;;;;5052705;28;20029;-82
2021/08/19 12:06:32;;;;;;;2.33;0.80;;;22.70;99.90;;;;;;5052696;28;20028;-82
2021/08/19 12:08:58;;;;;;;1.17;0.80;;;22.90;99.90;;;;;;5052555;28;20025;-82
2021/08/19 12:11:25;;;;;;;1.73;1.00;;;22.80;99.90;;;;;;5053883;28;20032;-82
2021/08/19 12:13:53;;;;;;;3.22;0.80;;;22.80;99.90;;;;;;5052587;28;20025;-82
2021/08/19 12:16:25;;;;;;;1.30;0.85;;;22.80;99.90;;;;;;5052773;28;20035;-82
2021/08/19 12:19:10;;;;;;;3.03;0.95;;;22.70;99.90;;;;;;5053837;28;20020;-82
2021/08/19 12:22:01;;;;;;;1.27;0.60;;;22.70;99.90;;;;;;5052426;28;20027;-82
2021/08/19 12:24:41;;;;;;;1.80;0.82;;;22.70;99.90;;;;;;5052283;28;20041;-82
2021/08/19 12:27:18;;;;;;;1.08;0.70;;;22.90;99.90;;;;;;5052408;28;20035;-82
2021/08/19 12:29:50;;;;;;;2.25;0.80;;;22.90;99.90;;;;;;5052283;28;20021;-83
2021/08/19 12:32:25;;;;;;;2.47;0.90;;;22.70;99.90;;;;;;5052284;28;20114;-83
2021/08/19 12:34:57;;;;;;;2.45;0.70;;;22.80;99.90;;;;;;5052283;28;20021;-83
2021/08/19 12:37:23;;;;;;;2.70;0.60;;;22.80;99.90;;;;;;5051439;28;20055;-82
2021/08/19 12:39:49;;;;;;;1.85;1.00;;;22.90;99.90;;;;;;5052106;28;20091;-83
2021/08/19 12:42:15;;;;;;;2.17;0.75;;;22.90;99.90;;;;;;5052037;28;20029;-82
2021/08/19 12:45:00;;;;;;;1.13;0.70;;;22.80;99.90;;;;;;5052159;28;20029;-82
2021/08/19 12:47:34;;;;;;;0.80;0.70;;;22.80;99.90;;;;;;5053652;28;20032;-83
2021/08/19 12:50:00;;;;;;;3.20;0.90;;;22.90;99.90;;;;;;5053168;28;20028;-82
2021/08/19 12:52:26;;;;;;;1.63;0.90;;;22.80;99.90;;;;;;5051811;28;20400;-82
2021/08/19 12:55:07;;;;;;;1.27;0.80;;;22.70;99.90;;;;;;5053489;28;20035;-83